Terminal Aerodrome Forecast
Issued by NWS Huntsville, AL

Home | Current Version | Previous Version | Text Only | Print | Product List | Glossary On
Versions: 1 2 3 4 5 6 7 8 9 10 11 12 13 14 15 16 17 18 19 20 21 22 23 24 25
000
FTUS44 KHUN 231138
TAFHSV
TAF
KHSV 231138Z 2312/2412 12015G20KT P6SM VCSH SCT020 BKN040
      TEMPO 2312/2314 4SM -SHRA BKN020
     FM231400 12017G22KT 6SM -SHRA OVC025
     FM232200 18015G20KT 6SM BR VCSH OVC012
     FM240600 20014G18KT P6SM BKN030=

USA.gov is the U.S. government's official web portal to all federal, state and local government web resources and services.